createdAt,value
2023-01-20T00:02:45.923Z,6.7
2023-01-20T00:10:18.266Z,2.3
2023-01-20T00:17:50.578Z,1.9
2023-01-20T00:25:22.899Z,2.3
2023-01-20T00:32:55.208Z,1.7
2023-01-20T00:40:27.507Z,1.9
2023-01-20T00:47:59.806Z,2.3
2023-01-20T00:55:32.109Z,2.0
2023-01-20T01:03:04.424Z,2.7
2023-01-20T01:10:36.728Z,1.7
2023-01-20T01:18:09.024Z,2.5
2023-01-20T01:25:41.352Z,2.8
2023-01-20T01:33:13.666Z,1.3
2023-01-20T01:40:45.987Z,2.1
2023-01-20T01:48:18.304Z,2.8
2023-01-20T01:55:50.614Z,1.7
2023-01-20T02:03:22.937Z,3.0
2023-01-20T02:10:55.249Z,2.3
2023-01-20T02:18:27.572Z,1.3
2023-01-20T02:25:59.876Z,1.7
2023-01-20T02:33:32.196Z,2.7
2023-01-20T02:41:04.516Z,1.4
2023-01-20T02:48:36.834Z,2.4
2023-01-20T02:56:09.131Z,1.5
2023-01-20T03:03:41.535Z,1.1
2023-01-20T03:11:13.878Z,2.5
2023-01-20T03:18:46.207Z,3.0
2023-01-20T03:26:18.542Z,2.7
2023-01-20T03:33:50.881Z,1.6
2023-01-20T03:41:23.184Z,3.0
2023-01-20T03:48:55.489Z,1.9
2023-01-20T03:56:27.803Z,2.7
2023-01-20T04:04:00.134Z,4.2
2023-01-20T04:11:32.455Z,2.8
2023-01-20T04:19:04.760Z,1.5
2023-01-20T04:26:37.090Z,1.4
2023-01-20T04:34:09.405Z,3.3
2023-01-20T04:41:41.724Z,1.5
2023-01-20T04:49:14.048Z,4.9
2023-01-20T04:56:46.362Z,1.8
2023-01-20T05:04:18.683Z,3.9
2023-01-20T05:11:51.016Z,1.3
2023-01-20T05:19:23.334Z,1.4
2023-01-20T05:20:10.670Z,2.4
2023-01-20T05:20:58.067Z,2.2
2023-01-20T05:21:45.384Z,1.8
2023-01-20T05:22:32.904Z,2.1
2023-01-20T05:23:20.207Z,2.4
2023-01-20T05:24:07.506Z,5.6
2023-01-20T05:24:54.830Z,6.6
2023-01-20T05:25:42.241Z,3.6
2023-01-20T05:26:29.561Z,4.7
2023-01-20T05:27:16.894Z,3.9
2023-01-20T05:28:04.272Z,5.3
2023-01-20T05:28:51.586Z,11.5
2023-01-20T05:29:38.898Z,4.6
2023-01-20T05:30:26.315Z,9.5
2023-01-20T05:31:13.736Z,10.7
2023-01-20T05:32:01.115Z,13.8
2023-01-20T05:32:48.509Z,13.2
2023-01-20T05:33:35.814Z,12.2
2023-01-20T05:34:23.133Z,6.6
2023-01-20T05:35:10.535Z,6.7
2023-01-20T05:35:57.851Z,55.0
2023-01-20T05:36:45.155Z,40.7
2023-01-20T05:37:32.547Z,27.8
2023-01-20T05:38:19.858Z,22.3
2023-01-20T05:39:07.179Z,12.9
2023-01-20T05:39:54.564Z,15.9
2023-01-20T05:40:41.934Z,10.1
2023-01-20T05:41:29.249Z,13.0
2023-01-20T05:42:16.701Z,11.7
2023-01-20T05:43:04.045Z,10.2
2023-01-20T05:43:51.398Z,7.3
2023-01-20T05:44:38.809Z,12.3
2023-01-20T05:45:26.112Z,6.9
2023-01-20T05:46:13.501Z,10.6
2023-01-20T05:47:00.863Z,10.7
2023-01-20T05:47:48.227Z,8.1
2023-01-20T05:48:35.595Z,12.1
2023-01-20T05:49:23.000Z,6.9
2023-01-20T05:50:10.324Z,7.6
2023-01-20T05:50:57.708Z,6.8
2023-01-20T05:51:45.072Z,4.7
2023-01-20T05:52:32.404Z,7.2
2023-01-20T05:53:19.869Z,4.9
2023-01-20T05:54:07.204Z,8.9
2023-01-20T05:54:54.572Z,15.7
2023-01-20T05:55:41.906Z,8.2
2023-01-20T05:56:29.305Z,7.2
2023-01-20T05:57:16.600Z,12.5
2023-01-20T05:58:03.895Z,5.5
2023-01-20T05:58:51.344Z,9.9
2023-01-20T05:59:38.666Z,12.7
2023-01-20T06:00:25.991Z,17.2
2023-01-20T06:01:13.426Z,11.4
2023-01-20T06:02:00.749Z,5.7
2023-01-20T06:02:48.104Z,15.1
2023-01-20T06:03:35.569Z,13.2
2023-01-20T06:04:22.922Z,4.4
2023-01-20T06:05:10.225Z,10.0
2023-01-20T06:05:57.644Z,7.3
2023-01-20T06:06:44.988Z,5.7
2023-01-20T06:07:32.308Z,5.0
2023-01-20T06:08:19.713Z,5.1
2023-01-20T06:09:07.004Z,4.2
2023-01-20T06:09:54.319Z,10.8
2023-01-20T06:10:41.768Z,54.4
2023-01-20T06:11:29.118Z,48.3
2023-01-20T06:12:16.460Z,80.9
2023-01-20T06:13:03.914Z,19.6
2023-01-20T06:13:51.236Z,19.1
2023-01-20T06:14:38.627Z,20.1
2023-01-20T06:15:25.984Z,36.8
2023-01-20T06:16:13.420Z,41.2
2023-01-20T06:17:00.744Z,24.2
2023-01-20T06:17:48.224Z,18.6
2023-01-20T06:18:35.521Z,9.6
2023-01-20T06:19:22.849Z,22.3
2023-01-20T06:20:10.245Z,12.9
2023-01-20T06:20:57.555Z,12.1
2023-01-20T06:21:46.828Z,11.9
2023-01-20T06:23:21.581Z,10.3
2023-01-20T06:24:08.897Z,9.5
2023-01-20T06:24:56.233Z,14.0
2023-01-20T06:25:43.651Z,6.9
2023-01-20T06:26:30.967Z,26.5
2023-01-20T06:27:18.533Z,41.6
2023-01-20T06:28:05.981Z,17.2
2023-01-20T06:28:53.441Z,25.6
2023-01-20T06:29:40.831Z,14.0
2023-01-20T06:30:28.154Z,12.4
2023-01-20T06:31:15.574Z,16.8
2023-01-20T06:32:02.958Z,15.5
2023-01-20T06:32:50.299Z,14.0
2023-01-20T06:33:37.694Z,11.9
2023-01-20T06:34:25.055Z,12.5
2023-01-20T06:35:12.731Z,16.2
2023-01-20T06:36:00.423Z,11.6
2023-01-20T06:36:47.747Z,21.1
2023-01-20T06:37:35.077Z,9.4
2023-01-20T06:38:22.392Z,10.6
2023-01-20T06:39:09.719Z,9.7
2023-01-20T06:39:57.054Z,11.5
2023-01-20T06:40:44.383Z,23.8
2023-01-20T06:41:31.700Z,12.0
2023-01-20T06:42:18.993Z,21.2
2023-01-20T06:43:06.319Z,20.9
2023-01-20T06:43:53.640Z,21.1
2023-01-20T06:44:41.418Z,32.8
2023-01-20T06:45:28.897Z,24.9
2023-01-20T06:46:16.314Z,12.0
2023-01-20T06:47:03.699Z,13.8
2023-01-20T06:47:51.069Z,22.8
2023-01-20T06:48:38.467Z,17.2
2023-01-20T06:49:25.784Z,9.8
2023-01-20T06:50:13.113Z,21.1
2023-01-20T06:51:00.527Z,12.4
2023-01-20T06:51:47.841Z,10.7
2023-01-20T06:52:35.149Z,11.3
2023-01-20T06:53:22.549Z,12.2
2023-01-20T06:54:09.908Z,17.2
2023-01-20T06:54:57.209Z,11.3
2023-01-20T06:55:44.786Z,16.7
2023-01-20T06:56:32.098Z,33.3
2023-01-20T06:57:19.406Z,24.8
2023-01-20T06:58:06.816Z,16.1
2023-01-20T06:58:54.119Z,30.6
2023-01-20T06:59:41.444Z,27.7
2023-01-20T07:00:28.859Z,42.3
2023-01-20T07:01:16.480Z,46.1
2023-01-20T07:02:03.991Z,82.9
2023-01-20T07:02:51.557Z,53.5
2023-01-20T07:03:38.905Z,38.5
2023-01-20T07:04:26.261Z,55.7
2023-01-20T07:05:13.882Z,51.9
2023-01-20T07:06:01.691Z,35.2
2023-01-20T07:06:49.008Z,36.0
2023-01-20T07:07:36.310Z,29.2
2023-01-20T07:08:23.752Z,21.3
2023-01-20T07:09:11.222Z,25.1
2023-01-20T07:09:58.551Z,30.0
2023-01-20T07:10:45.990Z,35.6
2023-01-20T07:11:33.294Z,28.5
2023-01-20T07:12:20.606Z,24.1
2023-01-20T07:13:08.038Z,31.3
2023-01-20T07:13:55.359Z,25.5
2023-01-20T07:14:42.714Z,40.1
2023-01-20T07:15:30.086Z,37.7
2023-01-20T07:16:17.414Z,38.1
2023-01-20T07:17:04.775Z,60.8
2023-01-20T07:17:52.440Z,61.4
2023-01-20T07:18:40.428Z,61.0
2023-01-20T07:19:27.839Z,40.7
2023-01-20T07:20:15.188Z,45.8
2023-01-20T07:21:02.601Z,46.1
2023-01-20T07:21:50.143Z,45.1
2023-01-20T07:22:37.493Z,52.8
2023-01-20T07:23:24.917Z,46.8
2023-01-20T07:24:12.228Z,35.8
2023-01-20T07:24:59.544Z,44.3
2023-01-20T07:25:46.956Z,43.1
2023-01-20T07:26:34.262Z,21.3
2023-01-20T07:27:21.600Z,25.5
2023-01-20T07:28:09.018Z,25.0
2023-01-20T07:28:56.327Z,28.3
2023-01-20T07:29:43.636Z,34.7
2023-01-20T07:30:31.063Z,24.3
2023-01-20T07:31:18.591Z,23.3
2023-01-20T07:32:06.012Z,21.9
2023-01-20T07:32:53.439Z,32.2
2023-01-20T07:33:40.741Z,20.3
2023-01-20T07:34:28.096Z,22.1
2023-01-20T07:35:15.783Z,19.9
2023-01-20T07:36:03.483Z,20.0
2023-01-20T07:36:50.815Z,16.8
2023-01-20T07:37:38.139Z,21.5
2023-01-20T07:38:25.518Z,18.8
2023-01-20T07:39:12.830Z,19.7
2023-01-20T07:40:00.165Z,20.0
2023-01-20T07:40:47.563Z,14.9
2023-01-20T07:41:34.913Z,14.1
2023-01-20T07:42:22.263Z,16.7
2023-01-20T07:43:09.631Z,12.9
2023-01-20T07:43:56.951Z,17.0
2023-01-20T07:44:44.271Z,14.9
2023-01-20T07:45:31.758Z,23.5
2023-01-20T07:46:19.778Z,13.5
2023-01-20T07:47:07.085Z,17.9
2023-01-20T07:47:54.511Z,14.0
2023-01-20T07:48:41.824Z,13.4
2023-01-20T07:49:29.149Z,16.4
2023-01-20T07:50:16.584Z,20.0
2023-01-20T07:51:03.923Z,14.2
2023-01-20T07:51:51.243Z,16.0
2023-01-20T07:52:38.687Z,15.7
2023-01-20T07:53:26.010Z,15.9
2023-01-20T07:54:13.321Z,36.5
2023-01-20T07:55:00.744Z,21.0
2023-01-20T07:55:48.548Z,17.3
2023-01-20T07:56:35.927Z,21.9
2023-01-20T07:57:23.378Z,24.9
2023-01-20T07:58:10.703Z,19.0
2023-01-20T07:58:58.020Z,19.1
2023-01-20T07:59:45.446Z,15.2
2023-01-20T08:00:32.778Z,16.1
2023-01-20T08:01:20.247Z,9.0
2023-01-20T08:02:07.781Z,15.8
2023-01-20T08:02:55.113Z,19.4
2023-01-20T08:03:42.448Z,11.3
2023-01-20T08:04:29.892Z,20.6
2023-01-20T08:05:17.397Z,14.2
2023-01-20T08:06:04.753Z,13.2
2023-01-20T08:06:52.144Z,15.2
2023-01-20T08:07:39.454Z,13.1
2023-01-20T08:08:26.775Z,12.5
2023-01-20T08:09:14.205Z,13.1
2023-01-20T08:10:01.540Z,13.2
2023-01-20T08:10:49.010Z,8.8
2023-01-20T08:11:36.423Z,12.6
2023-01-20T08:12:23.775Z,12.1
2023-01-20T08:13:11.116Z,10.8
2023-01-20T08:13:58.508Z,7.7
2023-01-20T08:14:46.297Z,10.1
2023-01-20T08:15:33.733Z,12.4
2023-01-20T08:16:21.137Z,10.2
2023-01-20T08:17:08.509Z,12.0
2023-01-20T08:17:55.829Z,16.4
2023-01-20T08:18:43.263Z,9.5
2023-01-20T08:19:30.709Z,17.0
2023-01-20T08:20:19.665Z,6.8
2023-01-20T08:21:07.076Z,8.2
2023-01-20T08:21:54.430Z,8.1
2023-01-20T08:22:41.820Z,8.6
2023-01-20T08:23:29.165Z,8.7
2023-01-20T08:24:16.794Z,7.2
2023-01-20T08:25:04.130Z,16.3
2023-01-20T08:25:51.460Z,9.7
2023-01-20T08:26:38.888Z,10.2
2023-01-20T08:27:26.192Z,7.6
2023-01-20T08:28:13.519Z,7.5
2023-01-20T08:29:01.092Z,6.8
2023-01-20T08:29:48.407Z,11.0
2023-01-20T08:30:36.859Z,12.0
2023-01-20T08:31:24.313Z,9.0
2023-01-20T08:32:11.751Z,8.2
2023-01-20T08:32:59.087Z,8.2
2023-01-20T08:33:46.413Z,9.1
2023-01-20T08:34:33.883Z,9.4
2023-01-20T08:35:21.184Z,17.6
2023-01-20T08:36:08.489Z,5.5
2023-01-20T08:36:55.931Z,16.8
2023-01-20T08:37:43.268Z,6.8
2023-01-20T08:38:30.593Z,8.5
2023-01-20T08:39:17.990Z,7.0
2023-01-20T08:40:05.383Z,12.9
2023-01-20T08:40:52.704Z,4.9
2023-01-20T08:41:40.111Z,6.0
2023-01-20T08:42:27.437Z,22.2
2023-01-20T08:43:14.745Z,12.0
2023-01-20T08:44:02.162Z,12.0
2023-01-20T08:44:49.482Z,10.4
2023-01-20T08:45:36.799Z,8.6
2023-01-20T08:46:24.212Z,23.2
2023-01-20T08:47:11.538Z,10.8
2023-01-20T08:47:58.885Z,25.5
2023-01-20T08:48:46.273Z,37.4
2023-01-20T08:49:33.592Z,32.6
2023-01-20T08:50:20.905Z,23.4
2023-01-20T08:51:08.324Z,20.5
2023-01-20T08:51:55.625Z,23.5
2023-01-20T08:52:42.936Z,17.8
2023-01-20T08:53:30.354Z,11.1
2023-01-20T08:54:17.690Z,13.4
2023-01-20T08:55:05.067Z,9.4
2023-01-20T08:55:52.465Z,9.0
2023-01-20T08:56:39.783Z,15.1
2023-01-20T08:57:27.141Z,8.6
2023-01-20T08:58:14.587Z,16.5
2023-01-20T08:59:01.902Z,13.6
2023-01-20T08:59:49.220Z,20.7
2023-01-20T09:00:36.624Z,12.5
2023-01-20T09:01:24.046Z,11.1
2023-01-20T09:02:11.464Z,8.0
2023-01-20T09:02:58.806Z,12.5
2023-01-20T09:04:03.036Z,11.9
2023-01-20T09:04:43.415Z,6.2
2023-01-20T09:05:30.825Z,6.4
2023-01-20T09:06:18.128Z,6.6
2023-01-20T09:07:05.450Z,8.1
2023-01-20T09:07:52.868Z,6.3
2023-01-20T09:08:40.183Z,8.5
2023-01-20T09:09:27.770Z,15.8
2023-01-20T09:10:15.124Z,6.3
2023-01-20T09:11:02.457Z,6.0
2023-01-20T09:11:49.793Z,5.1
2023-01-20T09:12:37.208Z,6.7
2023-01-20T09:13:24.539Z,6.3
2023-01-20T09:14:12.026Z,5.0
2023-01-20T09:14:59.477Z,6.1
2023-01-20T09:15:46.799Z,5.7
2023-01-20T09:16:34.124Z,9.7
2023-01-20T09:17:21.553Z,6.5
2023-01-20T09:18:08.879Z,8.3
2023-01-20T09:18:56.185Z,5.9
2023-01-20T09:19:43.629Z,19.2
2023-01-20T09:20:30.985Z,10.7
2023-01-20T09:21:18.518Z,8.4
2023-01-20T09:22:05.983Z,8.1
2023-01-20T09:22:53.289Z,11.8
2023-01-20T09:23:40.611Z,13.9
2023-01-20T09:24:28.043Z,22.9
2023-01-20T09:25:15.551Z,32.1
2023-01-20T09:26:02.970Z,27.3
2023-01-20T09:26:50.388Z,24.7
2023-01-20T09:27:37.730Z,65.9
2023-01-20T09:28:26.362Z,59.5
2023-01-20T09:29:13.688Z,27.3
2023-01-20T09:30:00.998Z,27.5
2023-01-20T09:30:48.391Z,20.8
2023-01-20T09:31:35.949Z,29.0
2023-01-20T09:32:23.315Z,15.4
2023-01-20T09:33:10.616Z,19.7
2023-01-20T09:33:57.917Z,13.3
2023-01-20T09:34:45.345Z,13.0
2023-01-20T09:35:32.686Z,14.0
2023-01-20T09:36:20.013Z,27.4
2023-01-20T09:37:07.520Z,36.2
2023-01-20T09:37:54.954Z,54.8
2023-01-20T09:38:42.266Z,17.3
2023-01-20T09:39:29.711Z,19.0
2023-01-20T09:40:17.229Z,33.4
2023-01-20T09:41:04.694Z,24.2
2023-01-20T09:41:52.117Z,37.0
2023-01-20T09:42:39.460Z,39.7
2023-01-20T09:43:26.781Z,19.5
2023-01-20T09:44:14.217Z,19.1
2023-01-20T09:45:01.551Z,17.1
2023-01-20T09:45:48.877Z,29.1
2023-01-20T09:46:36.354Z,13.8
2023-01-20T09:47:23.766Z,19.3
2023-01-20T09:48:11.104Z,20.5
2023-01-20T09:48:58.548Z,21.0
2023-01-20T09:49:45.904Z,17.0
2023-01-20T09:50:33.174Z,16.3
2023-01-20T09:51:20.642Z,21.6
2023-01-20T09:52:07.986Z,22.1
2023-01-20T09:52:55.324Z,28.4
2023-01-20T09:53:42.724Z,20.9
2023-01-20T09:54:30.032Z,22.4
2023-01-20T09:55:17.356Z,25.2
2023-01-20T09:56:06.503Z,23.4
2023-01-20T09:56:55.668Z,22.9
2023-01-20T09:57:43.013Z,17.5
2023-01-20T09:58:30.333Z,24.3
2023-01-20T09:59:17.687Z,27.4
2023-01-20T10:00:05.055Z,29.7
2023-01-20T10:00:52.379Z,30.4
2023-01-20T10:01:39.831Z,28.5
2023-01-20T10:02:27.153Z,25.6
2023-01-20T10:03:14.491Z,23.5
2023-01-20T10:04:04.037Z,16.8
2023-01-20T10:04:52.289Z,25.4
2023-01-20T10:05:39.954Z,25.0
2023-01-20T10:06:27.315Z,20.4
2023-01-20T10:07:14.619Z,23.0
2023-01-20T10:08:01.962Z,10.8
2023-01-20T10:09:04.258Z,12.4
2023-01-20T10:09:46.549Z,12.1
2023-01-20T10:10:35.678Z,20.5
2023-01-20T10:11:23.183Z,13.0
2023-01-20T10:12:11.041Z,20.3
2023-01-20T10:13:00.284Z,44.5
2023-01-20T10:13:47.776Z,15.3
2023-01-20T10:14:35.108Z,19.7
2023-01-20T10:15:22.482Z,16.7
2023-01-20T10:16:09.858Z,11.6
2023-01-20T10:16:57.256Z,14.4
2023-01-20T10:17:44.595Z,15.2
2023-01-20T10:18:31.921Z,11.0
2023-01-20T10:19:22.179Z,6.9
2023-01-20T10:20:09.523Z,11.0
2023-01-20T10:20:56.844Z,7.1
2023-01-20T10:21:44.171Z,8.5
2023-01-20T10:22:31.528Z,8.8
2023-01-20T10:23:18.841Z,9.3
2023-01-20T10:24:06.167Z,7.1
2023-01-20T10:24:53.475Z,13.1
2023-01-20T10:25:40.803Z,8.6
2023-01-20T10:26:28.113Z,9.8
2023-01-20T10:27:15.419Z,5.6
2023-01-20T10:28:02.728Z,15.6
2023-01-20T10:28:50.062Z,8.5
2023-01-20T10:29:37.387Z,13.3
2023-01-20T10:30:24.788Z,5.9
2023-01-20T10:31:12.241Z,8.7
2023-01-20T10:31:59.599Z,13.9
2023-01-20T10:32:46.944Z,33.2
2023-01-20T10:33:34.250Z,17.9
2023-01-20T10:34:21.567Z,11.1
2023-01-20T10:35:08.870Z,42.7
2023-01-20T10:35:56.200Z,43.9
2023-01-20T10:36:43.517Z,39.7
2023-01-20T10:37:30.867Z,38.2
2023-01-20T10:38:18.172Z,29.3
2023-01-20T10:39:05.487Z,23.8
2023-01-20T10:39:52.827Z,27.5
2023-01-20T10:40:40.165Z,23.4
2023-01-20T10:41:27.528Z,24.9
2023-01-20T10:42:14.835Z,18.2
2023-01-20T10:43:02.173Z,19.5
2023-01-20T10:43:49.492Z,22.4
2023-01-20T10:44:36.814Z,13.5
2023-01-20T10:45:24.283Z,17.0
2023-01-20T10:46:12.772Z,14.1
2023-01-20T10:47:03.857Z,12.5
2023-01-20T10:47:51.327Z,11.5
2023-01-20T10:48:38.641Z,10.1
2023-01-20T10:49:25.995Z,12.3
2023-01-20T10:50:13.343Z,11.6
2023-01-20T10:51:00.684Z,12.2
2023-01-20T10:51:48.006Z,11.7
2023-01-20T10:52:35.333Z,13.0
2023-01-20T10:53:22.654Z,15.1
2023-01-20T10:54:10.012Z,11.2
2023-01-20T10:54:57.355Z,8.8
2023-01-20T10:55:44.676Z,11.8
2023-01-20T10:56:32.931Z,11.7
2023-01-20T10:57:20.327Z,17.2
2023-01-20T10:58:07.671Z,10.7
2023-01-20T10:58:55.051Z,12.1
2023-01-20T10:59:42.559Z,12.3
2023-01-20T11:00:29.909Z,6.4
2023-01-20T11:01:17.267Z,8.3
2023-01-20T11:02:11.919Z,11.7
2023-01-20T11:02:59.954Z,9.7
2023-01-20T11:03:47.350Z,6.5
2023-01-20T11:04:34.676Z,7.8
2023-01-20T11:05:22.018Z,5.3
2023-01-20T11:06:09.403Z,8.4
2023-01-20T11:06:56.726Z,10.3
2023-01-20T11:07:44.067Z,6.5
2023-01-20T11:08:31.454Z,8.5
2023-01-20T11:09:18.781Z,7.0
2023-01-20T11:10:06.114Z,6.8
2023-01-20T11:10:53.502Z,7.8
2023-01-20T11:11:40.827Z,5.4
2023-01-20T11:12:28.210Z,6.0
2023-01-20T11:13:15.540Z,5.2
2023-01-20T11:14:02.837Z,5.6
2023-01-20T11:14:50.207Z,7.5
2023-01-20T11:15:37.608Z,7.0
2023-01-20T11:16:25.118Z,8.4
2023-01-20T11:17:12.481Z,5.4
2023-01-20T11:17:59.907Z,5.5
2023-01-20T11:18:47.212Z,3.5
2023-01-20T11:19:36.453Z,5.2
2023-01-20T11:20:25.480Z,4.5
2023-01-20T11:21:12.923Z,3.7
2023-01-20T11:22:00.248Z,7.2
2023-01-20T11:22:47.575Z,6.6
2023-01-20T11:23:35.016Z,4.8
2023-01-20T11:31:07.470Z,4.9
2023-01-20T11:38:39.878Z,3.2
2023-01-20T11:45:29.985Z,3.0
2023-01-20T11:46:17.393Z,3.7
2023-01-20T11:47:04.725Z,3.1
2023-01-20T11:47:52.054Z,3.9
2023-01-20T11:48:39.387Z,4.3
2023-01-20T11:49:26.708Z,2.8
2023-01-20T11:50:14.449Z,5.0
2023-01-20T11:51:01.910Z,5.4
2023-01-20T11:51:49.398Z,6.6
2023-01-20T11:52:36.740Z,3.9
2023-01-20T11:53:24.109Z,3.4
2023-01-20T11:54:11.505Z,3.7
2023-01-20T11:54:58.840Z,4.2
2023-01-20T11:55:46.205Z,4.0
2023-01-20T11:56:33.576Z,3.5
2023-01-20T11:57:20.900Z,7.2
2023-01-20T11:58:08.232Z,5.3
2023-01-20T11:58:55.917Z,5.9
2023-01-20T11:59:43.340Z,4.2
2023-01-20T12:00:30.651Z,2.6
2023-01-20T12:01:18.119Z,8.8
2023-01-20T12:02:05.529Z,3.6
2023-01-20T12:02:52.902Z,3.0
2023-01-20T12:03:40.225Z,2.8
2023-01-20T12:04:27.586Z,5.3
2023-01-20T12:05:14.922Z,5.5
2023-01-20T12:06:02.244Z,5.2
2023-01-20T12:06:49.555Z,8.0
2023-01-20T12:07:36.916Z,15.9
2023-01-20T12:08:24.254Z,9.5
2023-01-20T12:09:11.710Z,6.5
2023-01-20T12:09:59.682Z,6.6
2023-01-20T12:10:47.142Z,9.9
2023-01-20T12:11:34.564Z,8.4
2023-01-20T12:12:21.868Z,5.5
2023-01-20T12:13:09.212Z,24.9
2023-01-20T12:13:56.610Z,3.4
2023-01-20T12:14:43.975Z,6.7
2023-01-20T12:15:31.289Z,5.3
2023-01-20T12:16:18.728Z,3.9
2023-01-20T12:17:06.082Z,7.5
2023-01-20T12:17:53.464Z,14.1
2023-01-20T12:18:45.421Z,11.8
2023-01-20T12:19:38.143Z,19.0
2023-01-20T12:20:25.530Z,8.7
2023-01-20T12:21:12.848Z,11.4
2023-01-20T12:22:00.167Z,9.3
2023-01-20T12:22:47.575Z,6.1
2023-01-20T12:23:34.899Z,8.2
2023-01-20T12:24:22.474Z,18.4
2023-01-20T12:25:10.549Z,8.9
2023-01-20T12:25:58.033Z,11.6
2023-01-20T12:26:45.337Z,8.0
2023-01-20T12:27:32.656Z,38.7
2023-01-20T12:28:20.055Z,16.6
2023-01-20T12:29:07.376Z,13.4
2023-01-20T12:29:54.692Z,12.5
2023-01-20T12:30:42.162Z,11.0
2023-01-20T12:31:29.572Z,15.0
2023-01-20T12:32:16.925Z,28.8
2023-01-20T12:33:04.501Z,23.0
2023-01-20T12:33:51.812Z,21.4
2023-01-20T12:34:39.157Z,13.3
2023-01-20T12:35:26.551Z,9.5
2023-01-20T12:36:14.134Z,13.3
2023-01-20T12:37:01.480Z,11.4
2023-01-20T12:37:48.873Z,7.6
2023-01-20T12:38:36.176Z,14.2
2023-01-20T12:39:23.489Z,9.6
2023-01-20T12:40:10.860Z,7.4
2023-01-20T12:40:58.169Z,8.2
2023-01-20T12:41:45.601Z,12.0
2023-01-20T12:42:32.927Z,6.1
2023-01-20T12:43:20.251Z,9.0
2023-01-20T12:44:07.566Z,9.3
2023-01-20T12:44:54.990Z,12.8
2023-01-20T12:45:42.325Z,13.2
2023-01-20T12:46:29.663Z,8.2
2023-01-20T12:47:17.439Z,8.5
2023-01-20T12:48:04.785Z,4.0
2023-01-20T12:48:52.262Z,4.2
2023-01-20T12:49:39.576Z,4.3
2023-01-20T12:50:26.948Z,4.5
2023-01-20T12:51:14.325Z,10.0
2023-01-20T12:52:01.774Z,4.7
2023-01-20T12:52:49.079Z,2.9
2023-01-20T12:53:36.385Z,4.0
2023-01-20T12:54:23.719Z,6.0
2023-01-20T12:55:11.070Z,2.8
2023-01-20T12:55:58.400Z,8.4
2023-01-20T12:56:45.708Z,13.8
2023-01-20T12:57:33.045Z,8.6
2023-01-20T12:58:20.404Z,10.4
2023-01-20T12:59:07.736Z,5.5
2023-01-20T12:59:55.214Z,5.3
2023-01-20T13:00:42.525Z,5.6
2023-01-20T13:01:29.929Z,5.8
2023-01-20T13:02:17.364Z,5.2
2023-01-20T13:03:04.761Z,9.6
2023-01-20T13:03:52.104Z,8.3
2023-01-20T13:04:39.427Z,7.0
2023-01-20T13:05:26.741Z,6.9
2023-01-20T13:06:14.043Z,5.4
2023-01-20T13:07:01.362Z,8.8
2023-01-20T13:07:48.687Z,3.0
2023-01-20T13:08:36.056Z,17.2
2023-01-20T13:09:23.368Z,13.0
2023-01-20T13:10:10.684Z,7.0
2023-01-20T13:10:57.993Z,11.8
2023-01-20T13:11:45.332Z,10.5
2023-01-20T13:12:32.688Z,10.8
2023-01-20T13:13:20.030Z,7.6
2023-01-20T13:14:07.355Z,7.0
2023-01-20T13:14:54.689Z,5.0
2023-01-20T13:15:42.037Z,15.1
2023-01-20T13:16:29.440Z,3.9
2023-01-20T13:17:16.800Z,3.6
2023-01-20T13:18:04.113Z,7.1
2023-01-20T13:18:51.437Z,7.2
2023-01-20T13:19:39.521Z,4.7
2023-01-20T13:20:26.862Z,4.9
2023-01-20T13:21:14.305Z,7.4
2023-01-20T13:22:08.005Z,7.8
2023-01-20T13:22:55.607Z,5.7
2023-01-20T13:23:43.071Z,4.8
2023-01-20T13:24:30.390Z,11.0
2023-01-20T13:25:18.042Z,5.2
2023-01-20T13:26:05.442Z,6.7
2023-01-20T13:26:52.857Z,6.2
2023-01-20T13:27:40.172Z,9.2
2023-01-20T13:28:27.539Z,5.6
2023-01-20T13:29:14.845Z,8.4
2023-01-20T13:30:02.163Z,3.3
2023-01-20T13:30:49.546Z,12.2
2023-01-20T13:31:37.214Z,9.4
2023-01-20T13:32:24.606Z,7.2
2023-01-20T13:33:11.926Z,5.5
2023-01-20T13:33:59.256Z,15.5
2023-01-20T13:34:46.569Z,8.8
2023-01-20T13:35:33.972Z,5.3
2023-01-20T13:36:21.330Z,9.2
2023-01-20T13:37:08.642Z,4.4
2023-01-20T13:37:55.971Z,7.4
2023-01-20T13:38:43.282Z,11.3
2023-01-20T13:39:30.608Z,5.2
2023-01-20T13:40:17.933Z,4.4
2023-01-20T13:41:05.256Z,5.6
2023-01-20T13:41:52.582Z,6.2
2023-01-20T13:42:39.898Z,7.3
2023-01-20T13:43:27.200Z,4.8
2023-01-20T13:44:14.502Z,4.7
2023-01-20T13:45:01.808Z,7.0
2023-01-20T13:45:49.160Z,2.6
2023-01-20T13:46:36.546Z,4.9
2023-01-20T13:47:23.879Z,4.2
2023-01-20T13:48:11.183Z,2.6
2023-01-20T13:48:58.502Z,2.9
2023-01-20T13:49:46.005Z,4.1
2023-01-20T13:50:33.344Z,8.6
2023-01-20T13:51:20.712Z,1.9
2023-01-20T13:52:08.167Z,8.8
2023-01-20T13:52:55.576Z,6.3
2023-01-20T13:53:42.920Z,8.4
2023-01-20T13:54:30.261Z,6.8
2023-01-20T13:55:17.753Z,4.9
2023-01-20T13:56:05.124Z,4.4
2023-01-20T13:56:52.444Z,4.5
2023-01-20T13:57:39.764Z,4.9
2023-01-20T13:58:27.077Z,5.9
2023-01-20T13:59:14.420Z,7.5
2023-01-20T14:00:01.996Z,5.3
2023-01-20T14:00:49.314Z,2.9
2023-01-20T14:01:36.684Z,5.0
2023-01-20T14:02:24.046Z,3.4
2023-01-20T14:03:11.361Z,2.4
2023-01-20T14:03:58.920Z,3.1
2023-01-20T14:04:46.220Z,3.1
2023-01-20T14:05:33.526Z,5.6
2023-01-20T14:06:20.858Z,3.0
2023-01-20T14:07:08.198Z,2.4
2023-01-20T14:07:55.500Z,3.8
2023-01-20T14:08:42.848Z,6.0
2023-01-20T14:09:30.184Z,10.1
2023-01-20T14:10:17.797Z,1.6
2023-01-20T14:11:05.375Z,1.8
2023-01-20T14:11:52.786Z,3.0
2023-01-20T14:12:40.079Z,1.6
2023-01-20T14:13:27.415Z,2.0
2023-01-20T14:14:14.749Z,6.9
2023-01-20T14:15:02.077Z,2.3
2023-01-20T14:15:49.477Z,1.5
2023-01-20T14:16:36.886Z,1.9
2023-01-20T14:17:24.246Z,1.2
2023-01-20T14:18:11.541Z,2.7
2023-01-20T14:18:58.838Z,1.5
2023-01-20T14:19:46.165Z,1.1
2023-01-20T14:20:33.465Z,8.8
2023-01-20T14:21:20.757Z,7.4
2023-01-20T14:22:08.066Z,3.1
2023-01-20T14:22:55.406Z,1.5
2023-01-20T14:23:42.842Z,1.0
2023-01-20T14:24:30.322Z,3.1
2023-01-20T14:25:17.934Z,2.3
2023-01-20T14:26:05.464Z,1.0
2023-01-20T14:26:53.024Z,2.7
2023-01-20T14:27:40.773Z,1.3
2023-01-20T14:28:28.105Z,1.3
2023-01-20T14:29:15.541Z,0.9
2023-01-20T14:30:02.873Z,1.9
2023-01-20T14:30:51.049Z,1.7
2023-01-20T14:31:38.513Z,3.4
2023-01-20T14:32:26.106Z,2.6
2023-01-20T14:33:13.441Z,5.5
2023-01-20T14:34:00.776Z,0.5
2023-01-20T14:34:48.084Z,1.5
2023-01-20T14:35:35.395Z,1.5
2023-01-20T14:36:22.904Z,0.8
2023-01-20T14:37:10.207Z,1.7
2023-01-20T14:37:57.570Z,1.6
2023-01-20T14:38:56.565Z,3.3
2023-01-20T14:39:42.190Z,1.1
2023-01-20T14:40:29.555Z,1.7
2023-01-20T14:41:16.863Z,0.6
2023-01-20T14:42:04.187Z,1.0
2023-01-20T14:42:51.605Z,0.5
2023-01-20T14:43:38.900Z,0.3
2023-01-20T14:44:26.207Z,1.3
2023-01-20T14:45:13.650Z,0.5
2023-01-20T14:46:01.003Z,0.6
2023-01-20T14:46:48.888Z,1.1
2023-01-20T14:47:36.211Z,1.6
2023-01-20T14:48:33.737Z,0.7
2023-01-20T14:49:21.031Z,0.8
2023-01-20T14:50:08.472Z,0.7
2023-01-20T14:50:55.840Z,0.8
2023-01-20T14:51:43.156Z,3.8
2023-01-20T14:52:30.996Z,23.5
2023-01-20T14:53:18.719Z,14.0
2023-01-20T14:54:06.032Z,8.6
2023-01-20T14:54:53.336Z,3.3
2023-01-20T14:55:40.810Z,3.2
2023-01-20T14:56:28.166Z,3.6
2023-01-20T14:57:15.477Z,4.6
2023-01-20T14:58:02.878Z,3.2
2023-01-20T14:58:50.212Z,4.1
2023-01-20T14:59:37.593Z,4.0
2023-01-20T15:00:24.950Z,3.8
2023-01-20T15:01:12.284Z,4.4
2023-01-20T15:01:59.639Z,10.3
2023-01-20T15:02:50.833Z,1.6
2023-01-20T15:03:42.308Z,2.0
2023-01-20T15:04:29.721Z,4.1
2023-01-20T15:05:17.420Z,2.5
2023-01-20T15:06:04.842Z,4.3
2023-01-20T15:06:52.265Z,1.4
2023-01-20T15:07:39.608Z,1.8
2023-01-20T15:08:26.940Z,1.6
2023-01-20T15:09:14.371Z,1.0
2023-01-20T15:10:02.567Z,3.4
2023-01-20T15:10:49.894Z,0.6
2023-01-20T15:11:37.300Z,1.9
2023-01-20T15:12:24.627Z,2.8
2023-01-20T15:13:11.898Z,6.2
2023-01-20T15:13:59.362Z,3.7
2023-01-20T15:14:46.674Z,3.1
2023-01-20T15:15:33.972Z,3.9
2023-01-20T15:16:21.452Z,1.0
2023-01-20T15:17:08.801Z,1.0
2023-01-20T15:17:56.114Z,0.6
2023-01-20T15:18:43.568Z,3.0
2023-01-20T15:19:30.873Z,1.7
2023-01-20T15:20:18.180Z,1.2
2023-01-20T15:21:16.601Z,1.8
2023-01-20T15:22:02.912Z,1.8
2023-01-20T15:22:50.328Z,17.1
2023-01-20T15:23:37.628Z,15.6
2023-01-20T15:24:25.015Z,16.9
2023-01-20T15:25:12.405Z,1.2
2023-01-20T15:25:59.709Z,12.2
2023-01-20T15:26:47.029Z,6.5
2023-01-20T15:27:34.457Z,7.0
2023-01-20T15:28:21.798Z,2.6
2023-01-20T15:29:09.116Z,2.6
2023-01-20T15:29:56.551Z,1.7
2023-01-20T15:30:43.939Z,2.5
2023-01-20T15:31:31.309Z,2.0
2023-01-20T15:32:18.684Z,1.3
2023-01-20T15:33:05.989Z,4.7
2023-01-20T15:33:53.312Z,1.6
2023-01-20T15:34:40.733Z,3.8
2023-01-20T15:35:28.059Z,0.7
2023-01-20T15:36:15.388Z,0.7
2023-01-20T15:37:02.793Z,4.0
2023-01-20T15:37:50.112Z,4.3
2023-01-20T15:38:37.425Z,0.8
2023-01-20T15:39:24.871Z,1.6
2023-01-20T15:40:12.302Z,1.8
2023-01-20T15:40:59.624Z,2.2
2023-01-20T15:41:47.167Z,2.0
2023-01-20T15:42:34.487Z,2.1
2023-01-20T15:43:21.809Z,1.8
2023-01-20T15:44:09.385Z,1.0
2023-01-20T15:44:56.713Z,1.6
2023-01-20T15:45:44.031Z,6.7
2023-01-20T15:46:31.463Z,2.1
2023-01-20T15:47:18.804Z,1.8
2023-01-20T15:48:06.096Z,1.1
2023-01-20T15:48:53.525Z,1.9
2023-01-20T15:49:40.847Z,5.2
2023-01-20T15:50:28.156Z,2.8